Time;durP1;ratioP1;P1;durP2;ratioP2;P2;SDS_P1;SDS_P2;PMS_P1;PMS_P2;Temp;Humidity;BMP_temperature;BMP_pressure;BME280_temperature;BME280_humidity;BME280_pressure;Samples;Min_cycle;Max_cycle;Signal;HPM_P1;HPM_P2
2024/03/08 00:01:57;;;;;;;31.7;19.9;;;;;;;;;;;;;
2024/03/08 00:04:22;;;;;;;42;24.1;;;;;;;;;;;;;
2024/03/08 00:06:47;;;;;;;36.7;20.7;;;;;;;;;;;;;
2024/03/08 00:09:12;;;;;;;54;27.9;;;;;;;;;;;;;
2024/03/08 00:11:37;;;;;;;41.4;22.2;;;;;;;;;;;;;
2024/03/08 00:14:02;;;;;;;39.9;21.5;;;;;;;;;;;;;
2024/03/08 00:16:27;;;;;;;37.1;20.8;;;;;;;;;;;;;
2024/03/08 00:18:52;;;;;;;36.6;21.3;;;;;;;;;;;;;
2024/03/08 00:21:18;;;;;;;40.8;21.4;;;;;;;;;;;;;
2024/03/08 00:23:43;;;;;;;39.4;21.6;;;;;;;;;;;;;
2024/03/08 00:26:08;;;;;;;44.8;23;;;;;;;;;;;;;
2024/03/08 00:28:34;;;;;;;41.2;22.8;;;;;;;;;;;;;
2024/03/08 00:30:58;;;;;;;42.9;22.7;;;;;;;;;;;;;
2024/03/08 00:33:23;;;;;;;39.7;22.3;;;;;;;;;;;;;
2024/03/08 00:35:49;;;;;;;37.5;20.9;;;;;;;;;;;;;
2024/03/08 00:38:14;;;;;;;37.6;20.7;;;;;;;;;;;;;
2024/03/08 00:40:40;;;;;;;39.1;22;;;;;;;;;;;;;
2024/03/08 00:43:05;;;;;;;37.2;20.7;;;;;;;;;;;;;
2024/03/08 00:45:29;;;;;;;39.1;20.3;;;;;;;;;;;;;
2024/03/08 00:47:54;;;;;;;34.1;18.7;;;;;;;;;;;;;
2024/03/08 00:50:19;;;;;;;37.5;19.5;;;;;;;;;;;;;
2024/03/08 00:52:44;;;;;;;34.7;19.6;;;;;;;;;;;;;
2024/03/08 00:55:10;;;;;;;35.7;19.6;;;;;;;;;;;;;
2024/03/08 00:57:35;;;;;;;32.1;18.9;;;;;;;;;;;;;
2024/03/08 01:00:00;;;;;;;34.1;18.6;;;;;;;;;;;;;
2024/03/08 01:02:25;;;;;;;33.7;19;;;;;;;;;;;;;
2024/03/08 01:04:50;;;;;;;37.3;19.7;;;;;;;;;;;;;
2024/03/08 01:07:15;;;;;;;35.5;19.5;;;;;;;;;;;;;
2024/03/08 01:09:40;;;;;;;32.9;19.5;;;;;;;;;;;;;
2024/03/08 01:12:07;;;;;;;34.5;19.6;;;;;;;;;;;;;
2024/03/08 01:14:30;;;;;;;31.7;17.8;;;;;;;;;;;;;
2024/03/08 01:16:56;;;;;;;29.3;17.5;;;;;;;;;;;;;
2024/03/08 01:19:21;;;;;;;31.8;17.2;;;;;;;;;;;;;
2024/03/08 01:21:46;;;;;;;39.5;22.4;;;;;;;;;;;;;
2024/03/08 01:24:11;;;;;;;39.6;22;;;;;;;;;;;;;
2024/03/08 01:26:36;;;;;;;43;22.9;;;;;;;;;;;;;
2024/03/08 01:29:02;;;;;;;41.8;22.4;;;;;;;;;;;;;
2024/03/08 01:31:28;;;;;;;41.5;22.6;;;;;;;;;;;;;
2024/03/08 01:33:53;;;;;;;41.5;21;;;;;;;;;;;;;
2024/03/08 01:36:19;;;;;;;39.4;21.4;;;;;;;;;;;;;
2024/03/08 01:38:42;;;;;;;41;21.3;;;;;;;;;;;;;
2024/03/08 01:41:07;;;;;;;42.6;22.1;;;;;;;;;;;;;
2024/03/08 01:43:32;;;;;;;43.3;20.6;;;;;;;;;;;;;
2024/03/08 01:45:57;;;;;;;45.6;22.6;;;;;;;;;;;;;
2024/03/08 01:48:23;;;;;;;43.6;22.9;;;;;;;;;;;;;
2024/03/08 01:50:47;;;;;;;37.7;20.8;;;;;;;;;;;;;
2024/03/08 01:53:15;;;;;;;40.3;20.6;;;;;;;;;;;;;
2024/03/08 01:55:37;;;;;;;41;22.4;;;;;;;;;;;;;
2024/03/08 01:58:02;;;;;;;41.7;22.7;;;;;;;;;;;;;
2024/03/08 02:00:29;;;;;;;45.8;23.9;;;;;;;;;;;;;
2024/03/08 02:02:53;;;;;;;45.1;23.1;;;;;;;;;;;;;
2024/03/08 02:05:18;;;;;;;42.9;22.5;;;;;;;;;;;;;
2024/03/08 02:07:43;;;;;;;41.7;22.4;;;;;;;;;;;;;
2024/03/08 02:10:08;;;;;;;43.9;23.5;;;;;;;;;;;;;
2024/03/08 02:12:33;;;;;;;44.1;23.3;;;;;;;;;;;;;
2024/03/08 02:14:58;;;;;;;45.7;22.9;;;;;;;;;;;;;
2024/03/08 02:17:23;;;;;;;42.4;23.2;;;;;;;;;;;;;
2024/03/08 02:19:48;;;;;;;41;22.7;;;;;;;;;;;;;
2024/03/08 02:22:14;;;;;;;43.1;22.1;;;;;;;;;;;;;
2024/03/08 02:24:38;;;;;;;40;20.8;;;;;;;;;;;;;
2024/03/08 02:27:03;;;;;;;38.8;20.7;;;;;;;;;;;;;
2024/03/08 02:29:29;;;;;;;39.6;21.2;;;;;;;;;;;;;
2024/03/08 02:31:55;;;;;;;38.4;19.7;;;;;;;;;;;;;
2024/03/08 02:34:19;;;;;;;37.5;20.6;;;;;;;;;;;;;
2024/03/08 02:36:44;;;;;;;35;18.5;;;;;;;;;;;;;
2024/03/08 02:39:10;;;;;;;32.9;18.2;;;;;;;;;;;;;
2024/03/08 02:41:34;;;;;;;31.7;17;;;;;;;;;;;;;
2024/03/08 02:43:59;;;;;;;29.3;16.2;;;;;;;;;;;;;
2024/03/08 02:46:25;;;;;;;29.4;16.5;;;;;;;;;;;;;
2024/03/08 02:48:50;;;;;;;31.3;16.3;;;;;;;;;;;;;
2024/03/08 02:51:15;;;;;;;28.2;16.6;;;;;;;;;;;;;
2024/03/08 02:53:40;;;;;;;29.6;17.1;;;;;;;;;;;;;
2024/03/08 02:56:08;;;;;;;29.8;16.7;;;;;;;;;;;;;
2024/03/08 02:58:30;;;;;;;33.1;17.9;;;;;;;;;;;;;
2024/03/08 03:00:57;;;;;;;29.9;17.8;;;;;;;;;;;;;
2024/03/08 03:03:21;;;;;;;33.2;18.9;;;;;;;;;;;;;
2024/03/08 03:05:46;;;;;;;30;18;;;;;;;;;;;;;
2024/03/08 03:08:11;;;;;;;29.6;16.8;;;;;;;;;;;;;
2024/03/08 03:10:36;;;;;;;30.5;16.7;;;;;;;;;;;;;
2024/03/08 03:13:01;;;;;;;32.6;17.3;;;;;;;;;;;;;
2024/03/08 03:15:26;;;;;;;32.5;17.9;;;;;;;;;;;;;
2024/03/08 03:17:52;;;;;;;30.2;16.9;;;;;;;;;;;;;
2024/03/08 03:20:22;;;;;;;32.1;17.9;;;;;;;;;;;;;
2024/03/08 03:22:47;;;;;;;30.3;15.8;;;;;;;;;;;;;
2024/03/08 03:25:08;;;;;;;27.6;16.1;;;;;;;;;;;;;
2024/03/08 03:27:32;;;;;;;27;15.2;;;;;;;;;;;;;
2024/03/08 03:29:57;;;;;;;29.3;15.8;;;;;;;;;;;;;
2024/03/08 03:32:23;;;;;;;27;15.6;;;;;;;;;;;;;
2024/03/08 03:34:47;;;;;;;29.4;15.7;;;;;;;;;;;;;
2024/03/08 03:37:13;;;;;;;30.1;17.2;;;;;;;;;;;;;
2024/03/08 03:39:48;;;;;;;31.8;16.4;;;;;;;;;;;;;
2024/03/08 03:42:04;;;;;;;26.2;16.2;;;;;;;;;;;;;
2024/03/08 03:44:28;;;;;;;28.3;16.2;;;;;;;;;;;;;
2024/03/08 03:46:53;;;;;;;29.5;15.1;;;;;;;;;;;;;
2024/03/08 03:49:18;;;;;;;26.8;15.3;;;;;;;;;;;;;
2024/03/08 03:51:44;;;;;;;26.2;15.1;;;;;;;;;;;;;
2024/03/08 03:54:08;;;;;;;29.8;16.1;;;;;;;;;;;;;
2024/03/08 03:56:33;;;;;;;25.1;14.8;;;;;;;;;;;;;
2024/03/08 03:58:59;;;;;;;27.2;13.8;;;;;;;;;;;;;
2024/03/08 04:02:29;;;;;;;26.6;14.2;;;;;;;;;;;;;
2024/03/08 04:04:54;;;;;;;27.2;14.4;;;;;;;;;;;;;
2024/03/08 04:07:19;;;;;;;24.9;14.4;;;;;;;;;;;;;
2024/03/08 04:09:45;;;;;;;26.3;14.6;;;;;;;;;;;;;
2024/03/08 04:12:10;;;;;;;26.1;14;;;;;;;;;;;;;
2024/03/08 04:14:36;;;;;;;24.8;13.7;;;;;;;;;;;;;
2024/03/08 04:17:01;;;;;;;25.4;14.4;;;;;;;;;;;;;
2024/03/08 04:19:26;;;;;;;27;14.7;;;;;;;;;;;;;
2024/03/08 04:21:51;;;;;;;25.5;15;;;;;;;;;;;;;
2024/03/08 04:24:17;;;;;;;28.1;14.3;;;;;;;;;;;;;
2024/03/08 04:26:41;;;;;;;26.8;15.6;;;;;;;;;;;;;
2024/03/08 04:29:07;;;;;;;26.1;14.9;;;;;;;;;;;;;
2024/03/08 04:31:32;;;;;;;26.6;15;;;;;;;;;;;;;
2024/03/08 04:33:57;;;;;;;25.8;14.4;;;;;;;;;;;;;
2024/03/08 04:36:22;;;;;;;22.3;13.2;;;;;;;;;;;;;
2024/03/08 04:38:47;;;;;;;22.9;13.2;;;;;;;;;;;;;
2024/03/08 04:41:12;;;;;;;21.6;12.5;;;;;;;;;;;;;
2024/03/08 04:43:37;;;;;;;20.3;12.8;;;;;;;;;;;;;
2024/03/08 04:46:03;;;;;;;24.4;13;;;;;;;;;;;;;
2024/03/08 04:48:28;;;;;;;22.1;12.4;;;;;;;;;;;;;
2024/03/08 04:50:53;;;;;;;27.3;14.1;;;;;;;;;;;;;
2024/03/08 04:53:18;;;;;;;24.3;13.3;;;;;;;;;;;;;
2024/03/08 04:55:43;;;;;;;22.3;13.2;;;;;;;;;;;;;
2024/03/08 04:58:08;;;;;;;26.5;14.5;;;;;;;;;;;;;
2024/03/08 05:00:34;;;;;;;26.1;15;;;;;;;;;;;;;
2024/03/08 05:02:59;;;;;;;19.9;11.3;;;;;;;;;;;;;
2024/03/08 05:05:24;;;;;;;22.1;12.6;;;;;;;;;;;;;
2024/03/08 05:07:49;;;;;;;19.8;11.9;;;;;;;;;;;;;
2024/03/08 05:10:17;;;;;;;18;10.3;;;;;;;;;;;;;
2024/03/08 05:12:40;;;;;;;18.7;10.1;;;;;;;;;;;;;
2024/03/08 05:15:05;;;;;;;16.9;10.3;;;;;;;;;;;;;
2024/03/08 05:17:30;;;;;;;15.8;9.4;;;;;;;;;;;;;
2024/03/08 05:19:55;;;;;;;20.3;10.8;;;;;;;;;;;;;
2024/03/08 05:22:20;;;;;;;21.1;12.1;;;;;;;;;;;;;
2024/03/08 05:24:45;;;;;;;21;12.1;;;;;;;;;;;;;
2024/03/08 05:27:10;;;;;;;22.8;12.3;;;;;;;;;;;;;
2024/03/08 05:29:35;;;;;;;22.6;12.7;;;;;;;;;;;;;
2024/03/08 05:32:00;;;;;;;19.8;11.6;;;;;;;;;;;;;
2024/03/08 05:34:26;;;;;;;18.6;10.4;;;;;;;;;;;;;
2024/03/08 05:36:51;;;;;;;20.9;11.7;;;;;;;;;;;;;
2024/03/08 05:39:16;;;;;;;18.2;11.7;;;;;;;;;;;;;
2024/03/08 05:41:41;;;;;;;23.5;12.1;;;;;;;;;;;;;
2024/03/08 05:44:06;;;;;;;25.1;13.7;;;;;;;;;;;;;
2024/03/08 05:46:31;;;;;;;23.5;13.7;;;;;;;;;;;;;
2024/03/08 05:48:58;;;;;;;27.5;15.7;;;;;;;;;;;;;
2024/03/08 05:51:22;;;;;;;30;16.1;;;;;;;;;;;;;
2024/03/08 05:53:47;;;;;;;24.9;14.5;;;;;;;;;;;;;
2024/03/08 05:56:12;;;;;;;23.9;14.6;;;;;;;;;;;;;
2024/03/08 05:58:37;;;;;;;28.6;16;;;;;;;;;;;;;
2024/03/08 06:01:02;;;;;;;26.2;14.3;;;;;;;;;;;;;
2024/03/08 06:03:27;;;;;;;23.5;12.8;;;;;;;;;;;;;
2024/03/08 06:05:52;;;;;;;19.6;12.2;;;;;;;;;;;;;
2024/03/08 06:08:18;;;;;;;24.4;14;;;;;;;;;;;;;
2024/03/08 06:10:43;;;;;;;32.2;24.2;;;;;;;;;;;;;
2024/03/08 06:13:08;;;;;;;23.1;14;;;;;;;;;;;;;
2024/03/08 06:15:34;;;;;;;23.6;12.9;;;;;;;;;;;;;
2024/03/08 06:17:58;;;;;;;21.5;11.7;;;;;;;;;;;;;
2024/03/08 06:20:26;;;;;;;23.7;12.9;;;;;;;;;;;;;
2024/03/08 06:22:49;;;;;;;31.9;15.1;;;;;;;;;;;;;
2024/03/08 06:25:14;;;;;;;23.3;12.4;;;;;;;;;;;;;
2024/03/08 06:27:38;;;;;;;15.9;10.2;;;;;;;;;;;;;
2024/03/08 06:30:04;;;;;;;12.4;8;;;;;;;;;;;;;
2024/03/08 06:32:28;;;;;;;10.9;7.3;;;;;;;;;;;;;
2024/03/08 06:34:54;;;;;;;11.1;7.5;;;;;;;;;;;;;
2024/03/08 06:37:21;;;;;;;12;8.1;;;;;;;;;;;;;
2024/03/08 06:39:44;;;;;;;12.3;8.3;;;;;;;;;;;;;
2024/03/08 06:42:10;;;;;;;12.9;8.1;;;;;;;;;;;;;
2024/03/08 06:44:34;;;;;;;11.7;7.8;;;;;;;;;;;;;
2024/03/08 06:47:00;;;;;;;12.5;8;;;;;;;;;;;;;
2024/03/08 06:49:26;;;;;;;11.4;7.4;;;;;;;;;;;;;
2024/03/08 06:51:49;;;;;;;13.4;7.7;;;;;;;;;;;;;
2024/03/08 06:54:14;;;;;;;11.5;7.5;;;;;;;;;;;;;
2024/03/08 06:56:40;;;;;;;13.5;7.5;;;;;;;;;;;;;
2024/03/08 06:59:05;;;;;;;12.9;6.8;;;;;;;;;;;;;
2024/03/08 07:01:32;;;;;;;8.4;5.8;;;;;;;;;;;;;
2024/03/08 07:03:56;;;;;;;9;5.9;;;;;;;;;;;;;
2024/03/08 07:06:20;;;;;;;9.7;5.5;;;;;;;;;;;;;
2024/03/08 07:08:46;;;;;;;10.2;4.9;;;;;;;;;;;;;
2024/03/08 07:11:11;;;;;;;8.4;5.6;;;;;;;;;;;;;
2024/03/08 07:13:36;;;;;;;10.6;6.4;;;;;;;;;;;;;
2024/03/08 07:16:01;;;;;;;8.7;5.3;;;;;;;;;;;;;
2024/03/08 07:18:25;;;;;;;7.6;5;;;;;;;;;;;;;
2024/03/08 07:20:51;;;;;;;6.8;4.6;;;;;;;;;;;;;
2024/03/08 07:23:46;;;;;;;10.6;5.7;;;;;;;;;;;;;
2024/03/08 07:25:41;;;;;;;7.6;5.6;;;;;;;;;;;;;
2024/03/08 07:28:06;;;;;;;11.5;7.1;;;;;;;;;;;;;
2024/03/08 07:32:56;;;;;;;12.9;7.8;;;;;;;;;;;;;
2024/03/08 07:35:21;;;;;;;9.5;5.8;;;;;;;;;;;;;
2024/03/08 07:37:46;;;;;;;12.2;5.6;;;;;;;;;;;;;
2024/03/08 07:40:13;;;;;;;8.2;5.8;;;;;;;;;;;;;
2024/03/08 07:42:37;;;;;;;8.1;5.7;;;;;;;;;;;;;
2024/03/08 07:45:02;;;;;;;8.2;5.2;;;;;;;;;;;;;
2024/03/08 07:47:27;;;;;;;9.3;5.9;;;;;;;;;;;;;
2024/03/08 07:49:52;;;;;;;7;4.8;;;;;;;;;;;;;
2024/03/08 07:52:17;;;;;;;7.7;4.9;;;;;;;;;;;;;
2024/03/08 07:54:42;;;;;;;6.1;4.1;;;;;;;;;;;;;
2024/03/08 07:57:07;;;;;;;6.3;4;;;;;;;;;;;;;
2024/03/08 07:59:32;;;;;;;8.8;4.5;;;;;;;;;;;;;
2024/03/08 08:01:58;;;;;;;7.1;4.5;;;;;;;;;;;;;
2024/03/08 08:04:24;;;;;;;7.2;4.2;;;;;;;;;;;;;
2024/03/08 08:06:47;;;;;;;7.7;3.9;;;;;;;;;;;;;
2024/03/08 08:09:14;;;;;;;5.8;3.8;;;;;;;;;;;;;
2024/03/08 08:11:38;;;;;;;4.8;3.7;;;;;;;;;;;;;
2024/03/08 08:14:03;;;;;;;4.6;3.3;;;;;;;;;;;;;
2024/03/08 08:16:28;;;;;;;5.2;3.2;;;;;;;;;;;;;
2024/03/08 08:18:54;;;;;;;6.8;3.5;;;;;;;;;;;;;
2024/03/08 08:21:19;;;;;;;5.4;3.3;;;;;;;;;;;;;
2024/03/08 08:23:43;;;;;;;4.3;3.2;;;;;;;;;;;;;
2024/03/08 08:26:11;;;;;;;5.5;3;;;;;;;;;;;;;
2024/03/08 08:28:34;;;;;;;5.5;2.8;;;;;;;;;;;;;
2024/03/08 08:30:59;;;;;;;5.1;2.7;;;;;;;;;;;;;
2024/03/08 08:33:25;;;;;;;5.7;2.6;;;;;;;;;;;;;
2024/03/08 08:35:53;;;;;;;4.1;2.1;;;;;;;;;;;;;
2024/03/08 08:38:14;;;;;;;3.6;2.6;;;;;;;;;;;;;
2024/03/08 08:40:41;;;;;;;4.4;2.1;;;;;;;;;;;;;
2024/03/08 08:43:05;;;;;;;3;2.3;;;;;;;;;;;;;
2024/03/08 08:45:30;;;;;;;5.6;2.6;;;;;;;;;;;;;
2024/03/08 08:47:55;;;;;;;3.6;2.6;;;;;;;;;;;;;
2024/03/08 08:50:22;;;;;;;4.9;2.8;;;;;;;;;;;;;
2024/03/08 08:52:45;;;;;;;3.8;2.8;;;;;;;;;;;;;
2024/03/08 08:55:14;;;;;;;3;2.4;;;;;;;;;;;;;
2024/03/08 08:57:36;;;;;;;3.2;2;;;;;;;;;;;;;
2024/03/08 09:00:01;;;;;;;4.8;2.5;;;;;;;;;;;;;
2024/03/08 09:02:26;;;;;;;2.8;1.7;;;;;;;;;;;;;
2024/03/08 09:04:51;;;;;;;2.7;1.7;;;;;;;;;;;;;
2024/03/08 09:07:18;;;;;;;3;1.8;;;;;;;;;;;;;
2024/03/08 09:09:41;;;;;;;3;1.8;;;;;;;;;;;;;
2024/03/08 09:12:06;;;;;;;3.4;1.7;;;;;;;;;;;;;
2024/03/08 09:14:31;;;;;;;2;1.8;;;;;;;;;;;;;
2024/03/08 09:16:57;;;;;;;2.3;1.4;;;;;;;;;;;;;
2024/03/08 09:19:25;;;;;;;2.7;1.6;;;;;;;;;;;;;
2024/03/08 09:21:47;;;;;;;4.3;1.7;;;;;;;;;;;;;
2024/03/08 09:24:12;;;;;;;2;1.4;;;;;;;;;;;;;
2024/03/08 09:26:37;;;;;;;1.9;1.5;;;;;;;;;;;;;
2024/03/08 09:29:02;;;;;;;2;1.7;;;;;;;;;;;;;
2024/03/08 09:31:27;;;;;;;1.5;1.3;;;;;;;;;;;;;
2024/03/08 09:33:52;;;;;;;2.7;1.4;;;;;;;;;;;;;
2024/03/08 09:36:17;;;;;;;3.9;1.7;;;;;;;;;;;;;
2024/03/08 09:38:42;;;;;;;3.6;1.5;;;;;;;;;;;;;
2024/03/08 09:41:09;;;;;;;2;1.4;;;;;;;;;;;;;
2024/03/08 09:43:33;;;;;;;2.2;1.5;;;;;;;;;;;;;
2024/03/08 09:45:58;;;;;;;2.7;1.5;;;;;;;;;;;;;
2024/03/08 09:48:23;;;;;;;2.1;1.4;;;;;;;;;;;;;
2024/03/08 09:50:49;;;;;;;2.8;1.3;;;;;;;;;;;;;
2024/03/08 09:53:13;;;;;;;5.7;3.1;;;;;;;;;;;;;
2024/03/08 09:55:42;;;;;;;7.4;3.4;;;;;;;;;;;;;
2024/03/08 09:58:36;;;;;;;7.1;4.1;;;;;;;;;;;;;
2024/03/08 10:00:28;;;;;;;5.8;4.4;;;;;;;;;;;;;
2024/03/08 10:02:53;;;;;;;5.2;3.9;;;;;;;;;;;;;
2024/03/08 10:05:19;;;;;;;6.5;4.4;;;;;;;;;;;;;
2024/03/08 10:07:44;;;;;;;6.8;4.8;;;;;;;;;;;;;
2024/03/08 10:10:11;;;;;;;8.8;5.4;;;;;;;;;;;;;
2024/03/08 10:12:34;;;;;;;9.1;5;;;;;;;;;;;;;
2024/03/08 10:14:59;;;;;;;6.8;5;;;;;;;;;;;;;
2024/03/08 10:17:24;;;;;;;8.9;5.6;;;;;;;;;;;;;
2024/03/08 10:19:49;;;;;;;8.2;5.5;;;;;;;;;;;;;
2024/03/08 10:22:14;;;;;;;8.6;5.2;;;;;;;;;;;;;
2024/03/08 10:24:40;;;;;;;8.1;5.7;;;;;;;;;;;;;
2024/03/08 10:27:05;;;;;;;8.2;5.5;;;;;;;;;;;;;
2024/03/08 10:29:30;;;;;;;7.1;5.4;;;;;;;;;;;;;
2024/03/08 10:31:55;;;;;;;7.3;5.3;;;;;;;;;;;;;
2024/03/08 10:34:20;;;;;;;6.4;4.5;;;;;;;;;;;;;
2024/03/08 10:36:46;;;;;;;6.5;4.9;;;;;;;;;;;;;
2024/03/08 10:39:10;;;;;;;6.5;4.7;;;;;;;;;;;;;
2024/03/08 10:41:35;;;;;;;6.1;4.7;;;;;;;;;;;;;
2024/03/08 10:44:00;;;;;;;7.6;5.3;;;;;;;;;;;;;
2024/03/08 10:46:25;;;;;;;9.1;5;;;;;;;;;;;;;
2024/03/08 10:48:50;;;;;;;7.4;4.7;;;;;;;;;;;;;
2024/03/08 10:51:15;;;;;;;8.6;5.2;;;;;;;;;;;;;
2024/03/08 10:53:41;;;;;;;7.6;5.2;;;;;;;;;;;;;
2024/03/08 10:56:07;;;;;;;7.6;5.3;;;;;;;;;;;;;
2024/03/08 10:58:31;;;;;;;7.7;5.1;;;;;;;;;;;;;
2024/03/08 11:00:56;;;;;;;6.6;4.3;;;;;;;;;;;;;
2024/03/08 11:03:21;;;;;;;7.6;4.8;;;;;;;;;;;;;
2024/03/08 11:05:48;;;;;;;7.1;5.2;;;;;;;;;;;;;
2024/03/08 11:08:13;;;;;;;7.8;5.2;;;;;;;;;;;;;
2024/03/08 11:10:37;;;;;;;6.3;4.7;;;;;;;;;;;;;
2024/03/08 11:13:03;;;;;;;7.2;5.2;;;;;;;;;;;;;
2024/03/08 11:15:29;;;;;;;8;4.8;;;;;;;;;;;;;
2024/03/08 11:17:55;;;;;;;7.7;4.8;;;;;;;;;;;;;
2024/03/08 11:20:20;;;;;;;7.4;5.3;;;;;;;;;;;;;
2024/03/08 11:22:45;;;;;;;7.1;5;;;;;;;;;;;;;
2024/03/08 11:25:09;;;;;;;8;5.2;;;;;;;;;;;;;
2024/03/08 11:27:34;;;;;;;7.5;5.2;;;;;;;;;;;;;
2024/03/08 11:29:59;;;;;;;6.4;4.9;;;;;;;;;;;;;
2024/03/08 11:32:25;;;;;;;7.7;5.1;;;;;;;;;;;;;
2024/03/08 11:34:50;;;;;;;8.1;5.2;;;;;;;;;;;;;
2024/03/08 11:37:14;;;;;;;7.6;5.1;;;;;;;;;;;;;
2024/03/08 11:39:39;;;;;;;7.3;5;;;;;;;;;;;;;
2024/03/08 11:42:04;;;;;;;7.2;5.3;;;;;;;;;;;;;
2024/03/08 11:44:31;;;;;;;7.5;5.4;;;;;;;;;;;;;
2024/03/08 11:46:55;;;;;;;6.9;5.1;;;;;;;;;;;;;
2024/03/08 11:49:20;;;;;;;6.7;5.2;;;;;;;;;;;;;
2024/03/08 11:51:45;;;;;;;7.7;4.6;;;;;;;;;;;;;
2024/03/08 11:54:10;;;;;;;8.3;5.1;;;;;;;;;;;;;
2024/03/08 11:56:35;;;;;;;6;4.4;;;;;;;;;;;;;
2024/03/08 11:59:01;;;;;;;51.5;26.9;;;;;;;;;;;;;
2024/03/08 12:01:25;;;;;;;7.9;5.5;;;;;;;;;;;;;
2024/03/08 12:03:51;;;;;;;161.5;62.3;;;;;;;;;;;;;
2024/03/08 12:06:16;;;;;;;7.6;5.1;;;;;;;;;;;;;
2024/03/08 12:08:41;;;;;;;7.4;5.2;;;;;;;;;;;;;
2024/03/08 12:11:06;;;;;;;7.8;5.7;;;;;;;;;;;;;
2024/03/08 12:13:31;;;;;;;6.1;4.9;;;;;;;;;;;;;
2024/03/08 12:15:56;;;;;;;6;4.8;;;;;;;;;;;;;
2024/03/08 12:18:21;;;;;;;7.2;4.7;;;;;;;;;;;;;
2024/03/08 12:20:49;;;;;;;6;4.8;;;;;;;;;;;;;
2024/03/08 12:23:11;;;;;;;6.4;5.1;;;;;;;;;;;;;
2024/03/08 12:25:37;;;;;;;6.3;4.3;;;;;;;;;;;;;
2024/03/08 12:28:04;;;;;;;9.4;5.1;;;;;;;;;;;;;
2024/03/08 12:30:28;;;;;;;7.6;5.2;;;;;;;;;;;;;
2024/03/08 12:32:55;;;;;;;6.3;4.5;;;;;;;;;;;;;
2024/03/08 12:35:17;;;;;;;6.6;4.8;;;;;;;;;;;;;
2024/03/08 12:37:42;;;;;;;8.6;5.1;;;;;;;;;;;;;
2024/03/08 12:40:09;;;;;;;6.3;4.6;;;;;;;;;;;;;
2024/03/08 12:42:34;;;;;;;7.3;5.3;;;;;;;;;;;;;
2024/03/08 12:44:59;;;;;;;6.9;4.8;;;;;;;;;;;;;
2024/03/08 12:47:23;;;;;;;5.2;4.2;;;;;;;;;;;;;
2024/03/08 12:49:48;;;;;;;7;4.8;;;;;;;;;;;;;
2024/03/08 12:52:13;;;;;;;8;5;;;;;;;;;;;;;
2024/03/08 12:54:38;;;;;;;6.5;4.7;;;;;;;;;;;;;
2024/03/08 12:57:04;;;;;;;7;4.6;;;;;;;;;;;;;
2024/03/08 12:59:29;;;;;;;8.2;5;;;;;;;;;;;;;
2024/03/08 13:01:55;;;;;;;6.1;4.5;;;;;;;;;;;;;
2024/03/08 13:04:21;;;;;;;5.4;4;;;;;;;;;;;;;
2024/03/08 13:06:46;;;;;;;5.3;4.1;;;;;;;;;;;;;
2024/03/08 13:09:10;;;;;;;5.3;4.2;;;;;;;;;;;;;
2024/03/08 13:11:36;;;;;;;5.7;3.9;;;;;;;;;;;;;
2024/03/08 13:14:00;;;;;;;5.8;4.2;;;;;;;;;;;;;
2024/03/08 13:16:29;;;;;;;5.9;4.4;;;;;;;;;;;;;
2024/03/08 13:18:51;;;;;;;4.9;3.6;;;;;;;;;;;;;
2024/03/08 13:21:18;;;;;;;5.4;4.1;;;;;;;;;;;;;
2024/03/08 13:23:45;;;;;;;5.5;4.2;;;;;;;;;;;;;
2024/03/08 13:26:05;;;;;;;5;4.1;;;;;;;;;;;;;
2024/03/08 13:28:31;;;;;;;6.6;3.9;;;;;;;;;;;;;
2024/03/08 13:30:57;;;;;;;7;4.5;;;;;;;;;;;;;
2024/03/08 13:33:21;;;;;;;5.6;4.2;;;;;;;;;;;;;
2024/03/08 13:35:46;;;;;;;5.5;4.3;;;;;;;;;;;;;
2024/03/08 13:38:13;;;;;;;5.7;4.5;;;;;;;;;;;;;
2024/03/08 13:40:36;;;;;;;6.2;3.9;;;;;;;;;;;;;
2024/03/08 13:43:01;;;;;;;5.2;4.1;;;;;;;;;;;;;
2024/03/08 13:45:26;;;;;;;5.9;4.7;;;;;;;;;;;;;
2024/03/08 13:47:52;;;;;;;5.9;4.3;;;;;;;;;;;;;
2024/03/08 13:50:21;;;;;;;7.2;4;;;;;;;;;;;;;
2024/03/08 13:52:43;;;;;;;7.8;4.3;;;;;;;;;;;;;
2024/03/08 13:55:07;;;;;;;7.8;4.9;;;;;;;;;;;;;
2024/03/08 13:57:31;;;;;;;6.3;4.3;;;;;;;;;;;;;
2024/03/08 13:59:57;;;;;;;6.4;4.7;;;;;;;;;;;;;
2024/03/08 14:02:22;;;;;;;6.4;5.1;;;;;;;;;;;;;
2024/03/08 14:04:47;;;;;;;7.1;5.2;;;;;;;;;;;;;
2024/03/08 14:07:12;;;;;;;6.8;4.9;;;;;;;;;;;;;
2024/03/08 14:09:42;;;;;;;8.2;5.3;;;;;;;;;;;;;
2024/03/08 14:12:03;;;;;;;6.5;5.1;;;;;;;;;;;;;
2024/03/08 14:14:27;;;;;;;7.6;5.5;;;;;;;;;;;;;
2024/03/08 14:16:57;;;;;;;7.6;5.6;;;;;;;;;;;;;
2024/03/08 14:19:18;;;;;;;8.9;5.1;;;;;;;;;;;;;
2024/03/08 14:21:44;;;;;;;9.7;6;;;;;;;;;;;;;
2024/03/08 14:24:08;;;;;;;7.8;6.2;;;;;;;;;;;;;
2024/03/08 14:26:33;;;;;;;9.9;6;;;;;;;;;;;;;
2024/03/08 14:28:59;;;;;;;8.7;6;;;;;;;;;;;;;
2024/03/08 14:31:25;;;;;;;11;7.3;;;;;;;;;;;;;
2024/03/08 14:33:49;;;;;;;8.8;6;;;;;;;;;;;;;
2024/03/08 14:36:13;;;;;;;8.8;6.1;;;;;;;;;;;;;
2024/03/08 14:38:39;;;;;;;8.2;5.8;;;;;;;;;;;;;
2024/03/08 14:41:05;;;;;;;9.1;6.5;;;;;;;;;;;;;
2024/03/08 14:43:29;;;;;;;8.2;6;;;;;;;;;;;;;
2024/03/08 14:45:54;;;;;;;8.3;6.5;;;;;;;;;;;;;
2024/03/08 14:48:19;;;;;;;9.7;6.5;;;;;;;;;;;;;
2024/03/08 14:50:47;;;;;;;9.4;6.4;;;;;;;;;;;;;
2024/03/08 14:53:10;;;;;;;8.6;6.2;;;;;;;;;;;;;
2024/03/08 14:55:34;;;;;;;10.7;6.5;;;;;;;;;;;;;
2024/03/08 14:57:59;;;;;;;9.6;6.4;;;;;;;;;;;;;
2024/03/08 15:00:33;;;;;;;9.3;6.5;;;;;;;;;;;;;
2024/03/08 15:02:53;;;;;;;9.3;6.6;;;;;;;;;;;;;
2024/03/08 15:05:21;;;;;;;11.6;7.1;;;;;;;;;;;;;
2024/03/08 15:07:42;;;;;;;9.7;6.6;;;;;;;;;;;;;
2024/03/08 15:10:10;;;;;;;9.3;6.6;;;;;;;;;;;;;
2024/03/08 15:12:30;;;;;;;10.2;6.6;;;;;;;;;;;;;
2024/03/08 15:14:55;;;;;;;9.9;6.9;;;;;;;;;;;;;
2024/03/08 15:17:21;;;;;;;10.4;7.1;;;;;;;;;;;;;
2024/03/08 15:19:47;;;;;;;11.1;7.3;;;;;;;;;;;;;
2024/03/08 15:22:11;;;;;;;9.4;6.9;;;;;;;;;;;;;
2024/03/08 15:24:37;;;;;;;10;6.4;;;;;;;;;;;;;
2024/03/08 15:27:01;;;;;;;12.7;7.4;;;;;;;;;;;;;
2024/03/08 15:29:27;;;;;;;9.8;7.3;;;;;;;;;;;;;
2024/03/08 15:31:53;;;;;;;11.6;7.2;;;;;;;;;;;;;
2024/03/08 15:34:18;;;;;;;11.5;7.5;;;;;;;;;;;;;
2024/03/08 15:36:42;;;;;;;12.1;8.1;;;;;;;;;;;;;
2024/03/08 15:39:09;;;;;;;12;7.7;;;;;;;;;;;;;
2024/03/08 15:41:32;;;;;;;10.6;7.2;;;;;;;;;;;;;
2024/03/08 15:43:59;;;;;;;10.6;7.4;;;;;;;;;;;;;
2024/03/08 15:46:23;;;;;;;12;7.6;;;;;;;;;;;;;
2024/03/08 15:48:48;;;;;;;11.3;7.5;;;;;;;;;;;;;
2024/03/08 15:51:13;;;;;;;11.3;7.1;;;;;;;;;;;;;
2024/03/08 15:53:37;;;;;;;10.5;7.6;;;;;;;;;;;;;
2024/03/08 15:56:05;;;;;;;11.6;7.1;;;;;;;;;;;;;
2024/03/08 15:58:28;;;;;;;11.3;7.5;;;;;;;;;;;;;
2024/03/08 16:00:53;;;;;;;11.5;7.4;;;;;;;;;;;;;
2024/03/08 16:03:18;;;;;;;12.7;7.9;;;;;;;;;;;;;
2024/03/08 16:05:43;;;;;;;13;7.8;;;;;;;;;;;;;
2024/03/08 16:08:09;;;;;;;9.9;7;;;;;;;;;;;;;
2024/03/08 16:10:33;;;;;;;11.2;7.1;;;;;;;;;;;;;
2024/03/08 16:13:00;;;;;;;10.9;6.8;;;;;;;;;;;;;
2024/03/08 16:15:25;;;;;;;11.3;7;;;;;;;;;;;;;
2024/03/08 16:17:49;;;;;;;11.6;7;;;;;;;;;;;;;
2024/03/08 16:20:14;;;;;;;12;6.8;;;;;;;;;;;;;
2024/03/08 16:22:39;;;;;;;9.9;6.4;;;;;;;;;;;;;
2024/03/08 16:25:04;;;;;;;9.4;6.4;;;;;;;;;;;;;
2024/03/08 16:27:32;;;;;;;10.6;7.1;;;;;;;;;;;;;
2024/03/08 16:29:54;;;;;;;10;6.8;;;;;;;;;;;;;
2024/03/08 16:32:20;;;;;;;9.2;6.2;;;;;;;;;;;;;
2024/03/08 16:34:45;;;;;;;14.9;7.5;;;;;;;;;;;;;
2024/03/08 16:37:10;;;;;;;10;6.5;;;;;;;;;;;;;
2024/03/08 16:39:35;;;;;;;11.1;6.5;;;;;;;;;;;;;
2024/03/08 16:42:05;;;;;;;14.7;6.9;;;;;;;;;;;;;
2024/03/08 16:44:26;;;;;;;10.9;7;;;;;;;;;;;;;
2024/03/08 16:46:50;;;;;;;9.7;6.6;;;;;;;;;;;;;
2024/03/08 16:49:15;;;;;;;9.8;6.8;;;;;;;;;;;;;
2024/03/08 16:51:41;;;;;;;9.1;6.4;;;;;;;;;;;;;
2024/03/08 16:54:08;;;;;;;11.8;7;;;;;;;;;;;;;
2024/03/08 16:56:31;;;;;;;9.8;6.6;;;;;;;;;;;;;
2024/03/08 16:58:56;;;;;;;9.6;6.6;;;;;;;;;;;;;
2024/03/08 17:01:22;;;;;;;9.8;6.6;;;;;;;;;;;;;
2024/03/08 17:03:47;;;;;;;10.2;6.7;;;;;;;;;;;;;
2024/03/08 17:06:11;;;;;;;11.1;7.2;;;;;;;;;;;;;
2024/03/08 17:08:37;;;;;;;10.6;7.1;;;;;;;;;;;;;
2024/03/08 17:11:01;;;;;;;9.7;6.6;;;;;;;;;;;;;
2024/03/08 17:13:26;;;;;;;13.6;7.5;;;;;;;;;;;;;
2024/03/08 17:15:53;;;;;;;9.8;6.8;;;;;;;;;;;;;
2024/03/08 17:18:16;;;;;;;10;6.8;;;;;;;;;;;;;
2024/03/08 17:20:42;;;;;;;9.4;5.8;;;;;;;;;;;;;
2024/03/08 17:23:07;;;;;;;8.6;5.4;;;;;;;;;;;;;
2024/03/08 17:25:32;;;;;;;9.3;6.1;;;;;;;;;;;;;
2024/03/08 17:27:58;;;;;;;9.4;6.2;;;;;;;;;;;;;
2024/03/08 17:30:24;;;;;;;13.2;7.2;;;;;;;;;;;;;
2024/03/08 17:32:48;;;;;;;9.5;6.2;;;;;;;;;;;;;
2024/03/08 17:35:13;;;;;;;11.3;7.5;;;;;;;;;;;;;
2024/03/08 17:37:37;;;;;;;9.7;5.8;;;;;;;;;;;;;
2024/03/08 17:40:05;;;;;;;8.6;5.1;;;;;;;;;;;;;
2024/03/08 17:42:27;;;;;;;8.1;5;;;;;;;;;;;;;
2024/03/08 17:44:53;;;;;;;9.1;4.9;;;;;;;;;;;;;
2024/03/08 17:47:19;;;;;;;7.6;5;;;;;;;;;;;;;
2024/03/08 17:49:44;;;;;;;8.3;5.7;;;;;;;;;;;;;
2024/03/08 17:52:08;;;;;;;7.2;4.9;;;;;;;;;;;;;
2024/03/08 17:54:34;;;;;;;7.8;5.3;;;;;;;;;;;;;
2024/03/08 17:56:59;;;;;;;7.7;5.1;;;;;;;;;;;;;
2024/03/08 17:59:24;;;;;;;9.1;5.5;;;;;;;;;;;;;
2024/03/08 18:01:49;;;;;;;9.6;5.3;;;;;;;;;;;;;
2024/03/08 18:04:14;;;;;;;8.8;5.7;;;;;;;;;;;;;
2024/03/08 18:06:40;;;;;;;79;36.6;;;;;;;;;;;;;
2024/03/08 18:09:05;;;;;;;11.9;6.3;;;;;;;;;;;;;
2024/03/08 18:11:29;;;;;;;15.5;8.5;;;;;;;;;;;;;
2024/03/08 18:13:54;;;;;;;13.1;6.6;;;;;;;;;;;;;
2024/03/08 18:16:20;;;;;;;11.6;6.4;;;;;;;;;;;;;
2024/03/08 18:18:45;;;;;;;14.6;7.3;;;;;;;;;;;;;
2024/03/08 18:21:09;;;;;;;15.2;9.9;;;;;;;;;;;;;
2024/03/08 18:23:35;;;;;;;10.8;7.6;;;;;;;;;;;;;
2024/03/08 18:26:01;;;;;;;14.3;8.9;;;;;;;;;;;;;
2024/03/08 18:28:26;;;;;;;13.4;7.6;;;;;;;;;;;;;
2024/03/08 18:30:53;;;;;;;15.4;7.7;;;;;;;;;;;;;
2024/03/08 18:33:15;;;;;;;13.9;7.8;;;;;;;;;;;;;
2024/03/08 18:35:41;;;;;;;13.5;8.9;;;;;;;;;;;;;
2024/03/08 18:38:06;;;;;;;12.4;8.2;;;;;;;;;;;;;
2024/03/08 18:40:30;;;;;;;14.8;8.2;;;;;;;;;;;;;
2024/03/08 18:42:56;;;;;;;12.1;7.4;;;;;;;;;;;;;
2024/03/08 18:45:21;;;;;;;11.5;6.5;;;;;;;;;;;;;
2024/03/08 18:47:48;;;;;;;9.9;6.5;;;;;;;;;;;;;
2024/03/08 18:50:13;;;;;;;13.3;7.6;;;;;;;;;;;;;
2024/03/08 18:52:38;;;;;;;23;11.6;;;;;;;;;;;;;
2024/03/08 18:55:02;;;;;;;32.6;18;;;;;;;;;;;;;
2024/03/08 18:57:27;;;;;;;50.1;23.4;;;;;;;;;;;;;
2024/03/08 18:59:52;;;;;;;35.5;17.6;;;;;;;;;;;;;
2024/03/08 19:02:18;;;;;;;20.6;11.3;;;;;;;;;;;;;
2024/03/08 19:04:42;;;;;;;16.5;9;;;;;;;;;;;;;
2024/03/08 19:07:09;;;;;;;16.7;9.7;;;;;;;;;;;;;
2024/03/08 19:09:33;;;;;;;14.2;8.9;;;;;;;;;;;;;
2024/03/08 19:12:01;;;;;;;16.1;9.7;;;;;;;;;;;;;
2024/03/08 19:14:23;;;;;;;13.4;9.1;;;;;;;;;;;;;
2024/03/08 19:16:50;;;;;;;12.6;8;;;;;;;;;;;;;
2024/03/08 19:19:13;;;;;;;10.4;7.4;;;;;;;;;;;;;
2024/03/08 19:21:39;;;;;;;11.4;8;;;;;;;;;;;;;
2024/03/08 19:24:04;;;;;;;11.7;7.5;;;;;;;;;;;;;
2024/03/08 19:26:29;;;;;;;13.2;7;;;;;;;;;;;;;
2024/03/08 19:28:54;;;;;;;14.8;8;;;;;;;;;;;;;
2024/03/08 19:31:19;;;;;;;14.8;8.2;;;;;;;;;;;;;
2024/03/08 19:33:45;;;;;;;13.6;8.1;;;;;;;;;;;;;
2024/03/08 19:36:12;;;;;;;26.1;16.4;;;;;;;;;;;;;
2024/03/08 19:38:35;;;;;;;29.9;15.8;;;;;;;;;;;;;
2024/03/08 19:40:59;;;;;;;25.7;15.4;;;;;;;;;;;;;
2024/03/08 19:43:26;;;;;;;24.1;14.4;;;;;;;;;;;;;
2024/03/08 19:45:52;;;;;;;24.9;15.1;;;;;;;;;;;;;
2024/03/08 19:48:19;;;;;;;19.7;12.4;;;;;;;;;;;;;
2024/03/08 19:50:41;;;;;;;15.8;9.2;;;;;;;;;;;;;
2024/03/08 19:53:07;;;;;;;16.1;9.6;;;;;;;;;;;;;
2024/03/08 19:55:32;;;;;;;12.1;7.9;;;;;;;;;;;;;
2024/03/08 19:57:55;;;;;;;12.6;7.4;;;;;;;;;;;;;
2024/03/08 20:00:25;;;;;;;17.1;11.5;;;;;;;;;;;;;
2024/03/08 20:02:45;;;;;;;18.5;12.6;;;;;;;;;;;;;
2024/03/08 20:05:12;;;;;;;18;11.7;;;;;;;;;;;;;
2024/03/08 20:07:36;;;;;;;13.9;9.8;;;;;;;;;;;;;
2024/03/08 20:10:02;;;;;;;14.7;9.1;;;;;;;;;;;;;
2024/03/08 20:12:26;;;;;;;15.2;11;;;;;;;;;;;;;